Time;durP1;ratioP1;P1;durP2;ratioP2;P2;SDS_P1;SDS_P2;PMS_P1;PMS_P2;Temp;Humidity;BMP_temperature;BMP_pressure;BME280_temperature;BME280_humidity;BME280_pressure;Samples;Min_cycle;Max_cycle;Signal;HPM_P1;HPM_P2
2022/01/10 00:01:28;;;;;;;2.67;1.07;;;;;;;;;;20835157;28;20786;-79
2022/01/10 00:11:30;;;;;;;0.63;0.50;;;;;;;;;;20818331;28;20222;-79
2022/01/10 00:21:32;;;;;;;0.83;0.50;;;;;;;;;;20835601;28;20260;-79
2022/01/10 00:31:34;;;;;;;0.70;0.40;;;;;;;;;;20801967;28;20265;-82
2022/01/10 00:41:36;;;;;;;1.37;1.00;;;;;;;;;;20815022;28;20930;-79
2022/01/10 00:51:38;;;;;;;1.63;0.60;;;;;;;;;;20814600;28;20210;-79
2022/01/10 01:01:40;;;;;;;0.90;0.70;;;;;;;;;;20779013;28;20822;-79
2022/01/10 01:32:08;;;;;;;0.90;0.70;;;;;;;;;;20720101;28;20582;-79
2022/01/10 01:52:30;;;;;;;1.27;0.67;;;;;;;;;;20762265;28;20215;-80
2022/01/10 02:02:32;;;;;;;1.30;0.93;;;;;;;;;;20746212;28;20286;-78
2022/01/10 02:12:34;;;;;;;1.80;1.10;;;;;;;;;;20763769;28;20274;-78
2022/01/10 02:22:40;;;;;;;1.57;0.70;;;;;;;;;;20771860;28;20290;-78
2022/01/10 02:33:12;;;;;;;0.60;0.53;;;;;;;;;;20754512;28;20235;-79
2022/01/10 02:43:14;;;;;;;0.30;0.30;;;;;;;;;;20727103;28;20704;-82
2022/01/10 02:53:16;;;;;;;1.20;0.67;;;;;;;;;;20727306;28;20273;-79
2022/01/10 03:03:18;;;;;;;1.40;0.40;;;;;;;;;;20711786;28;20606;-80
2022/01/10 03:13:22;;;;;;;1.00;0.50;;;;;;;;;;20771345;28;20211;-79
2022/01/10 03:23:24;;;;;;;1.67;1.00;;;;;;;;;;20741234;28;20239;-78
2022/01/10 03:33:26;;;;;;;1.10;0.60;;;;;;;;;;20756440;28;20235;-77
2022/01/10 03:43:28;;;;;;;0.67;0.47;;;;;;;;;;20755116;28;20246;-79
2022/01/10 03:53:30;;;;;;;0.80;0.53;;;;;;;;;;20754707;28;20223;-79
2022/01/10 04:03:34;;;;;;;1.20;0.63;;;;;;;;;;20736940;28;20231;-79
2022/01/10 04:13:44;;;;;;;1.23;0.80;;;;;;;;;;20800997;28;20589;-79
2022/01/10 04:23:46;;;;;;;1.10;1.00;;;;;;;;;;20792403;28;20688;-78
2022/01/10 04:33:48;;;;;;;2.83;1.07;;;;;;;;;;20832557;28;20238;-79
2022/01/10 04:43:50;;;;;;;0.93;0.50;;;;;;;;;;20799522;28;20226;-79
2022/01/10 04:53:55;;;;;;;0.50;0.43;;;;;;;;;;20754486;28;20227;-79
2022/01/10 05:03:57;;;;;;;3.77;1.27;;;;;;;;;;20720691;28;20266;-79
2022/01/10 05:13:59;;;;;;;1.40;0.90;;;2.70;99.90;;;;;;20727404;28;20219;-79
2022/01/10 05:24:01;;;;;;;3.47;1.30;;;;;;;;;;20717798;28;20241;-79
2022/01/10 05:34:03;;;;;;;2.43;1.10;;;;;;;;;;20746809;28;20243;-80
2022/01/10 05:44:05;;;;;;;1.60;0.90;;;2.70;99.90;;;;;;20730353;28;20306;-79
2022/01/10 05:54:10;;;;;;;0.90;0.70;;;;;;;;;;20699601;28;20211;-79
2022/01/10 06:04:12;;;;;;;0.57;0.57;;;;;;;;;;20730292;28;20285;-80
2022/01/10 06:14:18;;;;;;;1.23;0.90;;;;;;;;;;20728152;28;20212;-80
2022/01/10 06:24:20;;;;;;;1.57;0.80;;;;;;;;;;20695576;28;20648;-80
2022/01/10 06:34:22;;;;;;;1.73;0.97;;;;;;;;;;20727235;28;20214;-80
2022/01/10 06:44:25;;;;;;;4.07;0.97;;;;;;;;;;20740842;28;20218;-80
2022/01/10 06:54:27;;;;;;;1.17;0.77;;;;;;;;;;20742944;28;20588;-80
2022/01/10 07:04:32;;;;;;;0.80;0.47;;;;;;;;;;20823727;28;20660;-80
2022/01/10 07:14:36;;;;;;;1.17;0.67;;;;;;;;;;20806832;28;20207;-80
2022/01/10 07:24:39;;;;;;;2.03;1.10;;;;;;;;;;20821787;28;20234;-79
2022/01/10 07:34:41;;;;;;;1.70;1.07;;;;;;;;;;20822511;28;20261;-78
2022/01/10 07:44:43;;;;;;;0.67;0.50;;;;;;;;;;20836706;28;20223;-80
2022/01/10 07:54:45;;;;;;;2.43;1.33;;;;;;;;;;20840648;28;20245;-80
2022/01/10 08:04:48;;;;;;;1.23;0.63;;;;;;;;;;20759587;28;20594;-80
2022/01/10 08:14:50;;;;;;;1.07;0.70;;;;;;;;;;20807020;28;20292;-80
2022/01/10 08:24:52;;;;;;;1.37;1.00;;;;;;;;;;20866075;28;20226;-81
2022/01/10 08:34:55;;;;;;;1.10;0.90;;;;;;;;;;20843814;28;20280;-80
2022/01/10 08:44:58;;;;;;;4.33;1.23;;;;;;;;;;20832361;28;20235;-80
2022/01/10 08:55:00;;;;;;;0.60;0.50;;;;;;;;;;20835069;28;20207;-79
2022/01/10 09:05:02;;;;;;;0.97;0.63;;;;;;;;;;20826825;28;20280;-80
2022/01/10 09:15:07;;;;;;;0.97;0.80;;;3.50;99.90;;;;;;20809417;28;20207;-79
2022/01/10 09:25:09;;;;;;;1.50;1.07;;;;;;;;;;20828532;28;20288;-81
2022/01/10 09:35:11;;;;;;;1.03;0.40;;;;;;;;;;20811626;28;20223;-80
2022/01/10 09:45:13;;;;;;;1.70;1.03;;;;;;;;;;20829723;28;20280;-80
2022/01/10 09:55:15;;;;;;;1.73;1.17;;;;;;;;;;20775108;28;20211;-80
2022/01/10 10:05:17;;;;;;;2.90;1.23;;;;;;;;;;20797964;28;20248;-81
2022/01/10 10:15:23;;;;;;;1.00;0.70;;;;;;;;;;20809770;28;20219;-80
2022/01/10 10:25:25;;;;;;;4.67;1.40;;;;;;;;;;20830605;28;20276;-80
2022/01/10 10:35:27;;;;;;;2.90;1.10;;;;;;;;;;20859912;28;20661;-80
2022/01/10 10:45:29;;;;;;;2.60;1.20;;;;;;;;;;20774045;28;20618;-80
2022/01/10 10:55:33;;;;;;;8.53;1.60;;;;;;;;;;20834973;28;20226;-79
2022/01/10 11:05:36;;;;;;;4.70;1.63;;;;;;;;;;20823435;28;20265;-79
2022/01/10 11:15:38;;;;;;;2.77;1.20;;;;;;;;;;20823319;28;20569;-80
2022/01/10 11:25:42;;;;;;;2.57;1.30;;;5.80;99.90;;;;;;20828129;28;20696;-80
2022/01/10 11:35:48;;;;;;;2.43;1.30;;;;;;;;;;20820839;28;20231;-79
2022/01/10 11:45:50;;;;;;;4.03;2.00;;;;;;;;;;20817848;28;20214;-80
2022/01/10 11:55:53;;;;;;;4.30;1.77;;;;;;;;;;20819351;28;20277;-81
2022/01/10 12:05:55;;;;;;;4.73;1.30;;;;;;;;;;20807717;28;20215;-79
2022/01/10 12:15:59;;;;;;;2.77;1.70;;;;;;;;;;20833186;28;20253;-80
2022/01/10 12:26:01;;;;;;;5.53;1.47;;;;;;;;;;20820743;28;20269;-79
2022/01/10 12:36:05;;;;;;;5.40;1.87;;;;;;;;;;20836182;28;20264;-80
2022/01/10 12:46:07;;;;;;;3.87;1.50;;;;;;;;;;20833441;28;20206;-80
2022/01/10 12:56:09;;;;;;;2.63;1.10;;;;;;;;;;20787570;28;20239;-81
2022/01/10 13:06:11;;;;;;;5.03;1.47;;;;;;;;;;20784213;28;20276;-80
2022/01/10 13:16:23;;;;;;;2.40;1.57;;;5.70;99.90;;;;;;20830240;28;20222;-79
2022/01/10 13:26:27;;;;;;;1.90;0.90;;;;;;;;;;20829163;28;20217;-80
2022/01/10 13:36:55;;;;;;;2.60;1.17;;;5.70;99.90;;;;;;20803420;28;20284;-78
2022/01/10 13:47:11;;;;;;;3.50;2.20;;;;;;;;;;20800381;28;20292;-80
2022/01/10 13:57:18;;;;;;;2.77;1.20;;;5.60;99.90;;;;;;20826240;28;20226;-79
2022/01/10 14:07:20;;;;;;;4.53;1.40;;;;;;;;;;20825575;28;20284;-79
2022/01/10 14:17:22;;;;;;;2.93;1.30;;;;;;;;;;20809214;28;20765;-79
2022/01/10 14:27:25;;;;;;;1.67;1.03;;;;;;;;;;20826945;28;20227;-80
2022/01/10 14:37:27;;;;;;;1.63;1.00;;;;;;;;;;20824615;28;20245;-79
2022/01/10 14:47:29;;;;;;;1.90;1.07;;;;;;;;;;20812391;28;20313;-79
2022/01/10 14:57:31;;;;;;;6.33;1.53;;;;;;;;;;20789878;28;20234;-78
2022/01/10 15:07:33;;;;;;;1.10;0.93;;;;;;;;;;20839316;28;20617;-78
2022/01/10 15:17:35;;;;;;;2.53;1.50;;;;;;;;;;20834144;28;20261;-78
2022/01/10 15:27:37;;;;;;;3.63;1.30;;;;;;;;;;20839355;28;20214;-78
2022/01/10 15:37:39;;;;;;;1.43;0.93;;;;;;;;;;20827107;28;20594;-78
2022/01/10 15:47:45;;;;;;;3.23;1.53;;;;;;;;;;20838328;28;20222;-78
2022/01/10 15:57:47;;;;;;;2.13;1.13;;;;;;;;;;20824778;28;20699;-78
2022/01/10 16:07:49;;;;;;;2.57;1.37;;;;;;;;;;20837131;28;20215;-78
2022/01/10 16:17:51;;;;;;;4.07;1.53;;;;;;;;;;20835535;28;20218;-79
2022/01/10 16:27:53;;;;;;;1.43;0.90;;;4.80;99.90;;;;;;20836765;28;20611;-79
2022/01/10 16:37:55;;;;;;;1.53;1.07;;;;;;;;;;20835665;28;20226;-80
2022/01/10 16:47:58;;;;;;;1.70;1.30;;;;;;;;;;20793455;28;20277;-80
2022/01/10 16:58:01;;;;;;;3.73;1.57;;;;;;;;;;20803800;28;20227;-77
2022/01/10 17:08:04;;;;;;;4.40;1.83;;;;;;;;;;20832054;28;20569;-77
2022/01/10 17:18:06;;;;;;;3.13;1.60;;;4.70;99.90;;;;;;20844888;28;20218;-78
2022/01/10 17:28:08;;;;;;;3.33;1.47;;;;;;;;;;20773830;28;20215;-78
2022/01/10 17:38:11;;;;;;;3.70;2.17;;;;;;;;;;20809928;28;20300;-78
2022/01/10 17:48:14;;;;;;;4.50;1.90;;;4.50;99.90;;;;;;20827644;28;20688;-78
2022/01/10 17:58:17;;;;;;;6.70;1.77;;;;;;;;;;20824357;28;20226;-79
2022/01/10 18:08:18;;;;;;;3.63;1.43;;;;;;;;;;20803110;28;20260;-79
2022/01/10 18:18:21;;;;;;;3.13;1.23;;;;;;;;;;20819153;28;20283;-79
2022/01/10 18:28:23;;;;;;;3.30;1.70;;;;;;;;;;20819428;28;20214;-80
2022/01/10 18:38:24;;;;;;;2.20;1.60;;;;;;;;;;20811241;28;20238;-78
2022/01/10 18:48:27;;;;;;;5.90;2.30;;;;;;;;;;20807547;28;20218;-79
2022/01/10 18:58:30;;;;;;;2.33;1.50;;;;;;;;;;20832455;28;20622;-79
2022/01/10 19:08:31;;;;;;;1.77;1.20;;;;;;;;;;20821465;28;20211;-78
2022/01/10 19:18:33;;;;;;;4.33;1.40;;;;;;;;;;20843422;28;20242;-78
2022/01/10 19:28:35;;;;;;;2.00;1.17;;;;;;;;;;20825534;28;20260;-78
2022/01/10 19:38:37;;;;;;;1.50;0.93;;;;;;;;;;20845579;28;20230;-79
2022/01/10 19:48:39;;;;;;;4.03;1.80;;;;;;;;;;20833495;28;20245;-79
2022/01/10 19:58:41;;;;;;;4.23;2.40;;;;;;;;;;20776826;28;20227;-76
2022/01/10 20:08:45;;;;;;;5.20;1.87;;;;;;;;;;20821864;28;20238;-77
2022/01/10 20:18:50;;;;;;;5.97;2.40;;;;;;;;;;20828358;28;20279;-77
2022/01/10 20:28:51;;;;;;;3.13;2.00;;;;;;;;;;20816956;28;20712;-77
2022/01/10 20:38:54;;;;;;;6.20;2.70;;;;;;;;;;20834900;28;20659;-78
2022/01/10 20:48:56;;;;;;;2.87;2.13;;;;;;;;;;20848162;28;20223;-78
2022/01/10 20:58:59;;;;;;;2.43;1.73;;;3.90;99.90;;;;;;20833728;28;20214;-78
2022/01/10 21:09:01;;;;;;;2.10;1.60;;;;;;;;;;20825969;28;20215;-78
2022/01/10 21:19:04;;;;;;;2.10;1.27;;;;;;;;;;20828000;28;20594;-79
2022/01/10 21:29:06;;;;;;;2.43;1.73;;;3.70;99.90;;;;;;20825073;28;20549;-77
2022/01/10 21:39:09;;;;;;;2.50;1.73;;;;;;;;;;20819137;28;20226;-79
2022/01/10 21:49:11;;;;;;;3.77;2.17;;;;;;;;;;20813872;28;20218;-79
2022/01/10 21:59:14;;;;;;;5.87;1.60;;;;;;;;;;20828474;28;20289;-79
2022/01/10 22:09:16;;;;;;;1.90;1.33;;;2.70;99.90;;;;;;20823933;28;20268;-78
2022/01/10 22:19:18;;;;;;;5.93;2.07;;;;;;;;;;20830634;28;20222;-77
2022/01/10 22:29:20;;;;;;;2.37;1.50;;;;;;;;;;20828348;28;20236;-79
2022/01/10 22:39:22;;;;;;;4.33;1.77;;;3.20;99.90;;;;;;20809914;28;20230;-77
2022/01/10 22:49:24;;;;;;;2.00;1.47;;;;;;;;;;20771604;28;20210;-78
2022/01/10 22:59:27;;;;;;;1.70;1.30;;;;;;;;;;20826473;28;20230;-78
2022/01/10 23:09:29;;;;;;;2.93;1.80;;;;;;;;;;20823438;28;20218;-79
2022/01/10 23:19:31;;;;;;;2.43;2.10;;;;;;;;;;20824935;28;20230;-78
2022/01/10 23:29:33;;;;;;;2.07;1.37;;;;;;;;;;20838312;28;20214;-77
2022/01/10 23:39:34;;;;;;;2.67;2.03;;;;;;;;;;20821490;28;20276;-77
2022/01/10 23:49:36;;;;;;;5.80;2.20;;;;;;;;;;20836308;28;20244;-76
2022/01/10 23:59:38;;;;;;;1.40;0.90;;;;;;;;;;20836943;28;20234;-77
